createdAt,value
2017-12-03T00:00:29.728Z,-0.10
2017-12-03T00:02:33.158Z,-0.10
2017-12-03T00:04:35.824Z,0.00
2017-12-03T00:06:38.525Z,0.00
2017-12-03T00:08:41.188Z,0.00
2017-12-03T00:10:43.834Z,0.00
2017-12-03T00:12:46.509Z,0.00
2017-12-03T00:14:49.193Z,0.00
2017-12-03T00:16:51.875Z,0.00
2017-12-03T00:18:54.622Z,0.00
2017-12-03T00:20:58.147Z,0.00
2017-12-03T00:23:00.794Z,0.00
2017-12-03T00:25:04.260Z,0.00
2017-12-03T00:27:06.921Z,0.00
2017-12-03T00:29:10.336Z,0.00
2017-12-03T00:31:13.045Z,0.00
2017-12-03T00:33:16.480Z,0.10
2017-12-03T00:35:19.163Z,0.00
2017-12-03T00:37:21.840Z,0.10
2017-12-03T00:39:24.563Z,0.00
2017-12-03T00:41:27.991Z,0.10
2017-12-03T00:43:30.738Z,0.10
2017-12-03T00:45:34.159Z,0.10
2017-12-03T00:47:36.818Z,0.10
2017-12-03T00:49:39.497Z,0.10
2017-12-03T00:51:42.154Z,0.10
2017-12-03T00:53:45.591Z,0.20
2017-12-03T00:55:48.291Z,0.10
2017-12-03T00:57:51.006Z,0.10
2017-12-03T00:59:54.421Z,0.10
2017-12-03T01:01:57.108Z,0.20
2017-12-03T01:03:59.753Z,0.10
2017-12-03T01:06:02.403Z,0.10
2017-12-03T01:08:05.095Z,0.10
2017-12-03T01:10:08.520Z,0.10
2017-12-03T01:12:11.178Z,0.10
2017-12-03T01:14:13.859Z,0.10
2017-12-03T01:16:16.514Z,0.10
2017-12-03T01:18:19.945Z,0.10
2017-12-03T01:20:22.679Z,0.10
2017-12-03T01:22:25.316Z,0.10
2017-12-03T01:24:27.995Z,0.10
2017-12-03T01:26:30.663Z,0.10
2017-12-03T01:28:33.364Z,0.10
2017-12-03T01:30:36.050Z,0.00
2017-12-03T01:32:38.712Z,0.10
2017-12-03T01:34:42.147Z,0.10
2017-12-03T01:36:45.632Z,0.10
2017-12-03T01:38:49.140Z,0.10
2017-12-03T01:40:52.575Z,0.10
2017-12-03T01:42:55.242Z,0.10
2017-12-03T01:44:57.917Z,0.10
2017-12-03T01:47:00.682Z,0.10
2017-12-03T01:49:03.370Z,0.10
2017-12-03T01:51:06.059Z,0.00
2017-12-03T01:53:08.757Z,0.10
2017-12-03T01:55:11.426Z,0.10
2017-12-03T01:57:14.130Z,0.10
2017-12-03T01:59:17.684Z,0.00
2017-12-03T02:01:20.373Z,0.00
2017-12-03T02:03:23.062Z,0.00
2017-12-03T02:05:25.889Z,0.00
2017-12-03T02:07:28.594Z,0.10
2017-12-03T02:09:31.295Z,0.10
2017-12-03T02:11:33.990Z,0.00
2017-12-03T02:13:37.473Z,0.00
2017-12-03T02:15:40.183Z,0.00
2017-12-03T02:17:42.905Z,0.00
2017-12-03T02:19:45.648Z,0.00
2017-12-03T02:21:48.332Z,0.00
2017-12-03T02:23:51.000Z,0.10
2017-12-03T02:25:53.695Z,0.00
2017-12-03T02:27:56.379Z,0.00
2017-12-03T02:29:59.067Z,0.10
2017-12-03T02:32:01.745Z,0.00
2017-12-03T02:34:04.450Z,0.00
2017-12-03T02:36:08.074Z,0.00
2017-12-03T02:38:10.765Z,0.00
2017-12-03T02:40:13.429Z,0.00
2017-12-03T02:42:16.099Z,0.00
2017-12-03T02:44:18.799Z,0.00
2017-12-03T02:46:21.459Z,0.00
2017-12-03T02:48:24.131Z,0.10
2017-12-03T02:50:26.840Z,0.10
2017-12-03T02:52:29.544Z,0.00
2017-12-03T02:54:32.253Z,0.00
2017-12-03T02:56:34.971Z,0.00
2017-12-03T02:58:37.655Z,0.10
2017-12-03T03:00:40.360Z,0.10
2017-12-03T03:02:43.023Z,0.10
2017-12-03T03:04:45.699Z,0.00
2017-12-03T03:06:48.365Z,0.00
2017-12-03T03:08:51.051Z,0.00
2017-12-03T03:10:53.696Z,0.10
2017-12-03T03:12:56.388Z,0.10
2017-12-03T03:14:59.085Z,0.10
2017-12-03T03:17:01.782Z,0.10
2017-12-03T03:19:05.425Z,0.10
2017-12-03T03:21:08.082Z,0.10
2017-12-03T03:23:10.764Z,0.10
2017-12-03T03:25:13.453Z,0.10
2017-12-03T03:27:16.113Z,0.10
2017-12-03T03:29:18.807Z,0.10
2017-12-03T03:31:21.528Z,0.10
2017-12-03T03:33:24.959Z,0.10
2017-12-03T03:35:27.685Z,0.00
2017-12-03T03:37:30.394Z,0.10
2017-12-03T03:39:33.859Z,0.00
2017-12-03T03:41:36.540Z,0.00
2017-12-03T03:43:39.222Z,0.10
2017-12-03T03:45:41.944Z,0.10
2017-12-03T03:47:44.651Z,0.10
2017-12-03T03:49:47.304Z,0.10
2017-12-03T03:51:50.010Z,0.10
2017-12-03T03:53:52.743Z,0.10
2017-12-03T03:55:55.470Z,0.10
2017-12-03T03:57:58.159Z,0.10
2017-12-03T04:00:01.616Z,0.20
2017-12-03T04:02:04.315Z,0.20
2017-12-03T04:04:07.108Z,0.20
2017-12-03T04:06:09.807Z,0.10
2017-12-03T04:08:12.505Z,0.20
2017-12-03T04:10:15.160Z,0.10
2017-12-03T04:12:18.612Z,0.10
2017-12-03T04:14:21.280Z,0.10
2017-12-03T04:16:24.036Z,0.10
2017-12-03T04:18:26.756Z,0.10
2017-12-03T04:20:29.428Z,0.10
2017-12-03T04:22:32.143Z,0.10
2017-12-03T04:24:34.823Z,0.10
2017-12-03T04:26:37.642Z,0.10
2017-12-03T04:28:40.319Z,0.10
2017-12-03T04:30:43.018Z,0.10
2017-12-03T04:32:45.725Z,0.10
2017-12-03T04:34:48.397Z,0.10
2017-12-03T04:36:51.912Z,0.10
2017-12-03T04:38:54.689Z,0.10
2017-12-03T04:40:57.388Z,0.10
2017-12-03T04:43:00.070Z,0.10
2017-12-03T04:45:02.830Z,0.10
2017-12-03T04:47:05.599Z,0.10
2017-12-03T04:49:08.295Z,0.10
2017-12-03T04:51:11.157Z,0.20
2017-12-03T04:53:13.835Z,0.20
2017-12-03T04:55:16.537Z,0.20
2017-12-03T04:57:19.279Z,0.20
2017-12-03T04:59:22.048Z,0.20
2017-12-03T05:01:25.527Z,0.20
2017-12-03T05:03:29.026Z,0.20
2017-12-03T05:05:33.191Z,0.20
2017-12-03T05:07:35.890Z,0.20
2017-12-03T05:09:38.592Z,0.20
2017-12-03T05:11:42.061Z,0.20
2017-12-03T05:13:44.802Z,0.20
2017-12-03T05:15:47.526Z,0.20
2017-12-03T05:17:50.259Z,0.20
2017-12-03T05:19:52.934Z,0.20
2017-12-03T05:21:55.628Z,0.20
2017-12-03T05:23:58.377Z,0.20
2017-12-03T05:26:01.075Z,0.30
2017-12-03T05:28:03.825Z,0.30
2017-12-03T05:30:07.285Z,0.30
2017-12-03T05:32:09.968Z,0.30
2017-12-03T05:34:13.462Z,0.30
2017-12-03T05:36:16.929Z,0.30
2017-12-03T05:38:19.639Z,0.30
2017-12-03T05:40:23.121Z,0.30
2017-12-03T05:42:25.830Z,0.30
2017-12-03T05:44:28.500Z,0.30
2017-12-03T05:46:32.000Z,0.30
2017-12-03T05:48:34.700Z,0.30
2017-12-03T05:50:37.411Z,0.30
2017-12-03T05:52:40.162Z,0.30
2017-12-03T05:54:42.843Z,0.30
2017-12-03T05:56:45.558Z,0.30
2017-12-03T05:58:48.270Z,0.30
2017-12-03T06:00:50.973Z,0.30
2017-12-03T06:02:53.682Z,0.30
2017-12-03T06:04:56.438Z,0.30
2017-12-03T06:06:59.182Z,0.30
2017-12-03T06:09:01.917Z,0.30
2017-12-03T06:11:04.632Z,0.30
2017-12-03T06:13:07.320Z,0.40
2017-12-03T06:15:10.242Z,0.30
2017-12-03T06:17:13.132Z,0.40
2017-12-03T06:19:15.832Z,0.40
2017-12-03T06:21:19.276Z,0.40
2017-12-03T06:23:22.685Z,0.40
2017-12-03T06:25:25.440Z,0.40
2017-12-03T06:27:28.462Z,0.40
2017-12-03T06:29:42.839Z,0.40
2017-12-03T06:31:46.433Z,0.40
2017-12-03T06:33:49.209Z,0.40
2017-12-03T06:35:51.925Z,0.40
2017-12-03T06:37:54.640Z,0.40
2017-12-03T06:39:57.420Z,0.40
2017-12-03T06:42:00.941Z,0.40
2017-12-03T06:44:04.432Z,0.40
2017-12-03T06:46:08.830Z,0.40
2017-12-03T06:48:11.618Z,0.40
2017-12-03T06:50:14.314Z,0.50
2017-12-03T06:52:17.768Z,0.40
2017-12-03T06:54:20.446Z,0.40
2017-12-03T06:56:23.118Z,0.40
2017-12-03T06:58:26.333Z,0.40
2017-12-03T07:00:29.362Z,0.50
2017-12-03T07:02:32.088Z,0.50
2017-12-03T07:04:34.763Z,0.40
2017-12-03T07:06:37.593Z,0.50
2017-12-03T07:08:40.329Z,0.50
2017-12-03T07:10:43.009Z,0.50
2017-12-03T07:12:45.734Z,0.50
2017-12-03T07:14:48.589Z,0.50
2017-12-03T07:16:51.284Z,0.50
2017-12-03T07:18:53.977Z,0.50
2017-12-03T07:20:56.727Z,0.50
2017-12-03T07:22:59.464Z,0.50
2017-12-03T07:25:02.180Z,0.50
2017-12-03T07:27:04.921Z,0.60
2017-12-03T07:29:07.640Z,0.50
2017-12-03T07:31:10.361Z,0.50
2017-12-03T07:33:14.227Z,0.60
2017-12-03T07:35:16.925Z,0.50
2017-12-03T07:37:19.626Z,0.60
2017-12-03T07:39:22.349Z,0.60
2017-12-03T07:41:25.056Z,0.60
2017-12-03T07:43:27.774Z,0.60
2017-12-03T07:45:30.482Z,0.60
2017-12-03T07:47:33.232Z,0.60
2017-12-03T07:49:36.673Z,0.60
2017-12-03T07:51:39.548Z,0.60
2017-12-03T07:53:42.485Z,0.60
2017-12-03T07:55:45.979Z,0.60
2017-12-03T07:57:48.685Z,0.60
2017-12-03T07:59:51.386Z,0.70
2017-12-03T08:01:54.158Z,0.60
2017-12-03T08:03:56.934Z,0.70
2017-12-03T08:05:59.716Z,0.70
2017-12-03T08:08:02.412Z,0.70
2017-12-03T08:10:05.088Z,0.70
2017-12-03T08:12:07.769Z,0.70
2017-12-03T08:14:10.464Z,0.70
2017-12-03T08:16:13.212Z,0.70
2017-12-03T08:18:15.923Z,0.80
2017-12-03T08:20:18.613Z,0.80
2017-12-03T08:22:22.134Z,0.80
2017-12-03T08:24:24.849Z,0.70
2017-12-03T08:26:27.551Z,0.80
2017-12-03T08:28:30.276Z,0.80
2017-12-03T08:30:32.966Z,0.80
2017-12-03T08:32:35.656Z,0.80
2017-12-03T08:34:38.472Z,0.80
2017-12-03T08:36:42.101Z,0.80
2017-12-03T08:38:44.805Z,0.70
2017-12-03T08:40:47.504Z,0.80
2017-12-03T08:42:50.194Z,0.80
2017-12-03T08:44:52.957Z,0.80
2017-12-03T08:46:55.647Z,0.80
2017-12-03T08:48:59.188Z,0.70
2017-12-03T08:51:01.970Z,0.70
2017-12-03T08:53:04.674Z,0.70
2017-12-03T08:55:07.364Z,0.70
2017-12-03T08:57:10.017Z,0.80
2017-12-03T08:59:12.739Z,0.80
2017-12-03T09:01:16.331Z,0.90
2017-12-03T09:03:19.049Z,0.90
2017-12-03T09:05:21.828Z,0.90
2017-12-03T09:07:24.526Z,0.90
2017-12-03T09:09:27.215Z,1.00
2017-12-03T09:11:29.926Z,1.00
2017-12-03T09:13:33.372Z,0.90
2017-12-03T09:15:36.049Z,0.90
2017-12-03T09:17:38.808Z,0.90
2017-12-03T09:19:41.588Z,0.90
2017-12-03T09:21:44.287Z,0.90
2017-12-03T09:23:47.019Z,0.90
2017-12-03T09:25:50.465Z,0.90
2017-12-03T09:27:53.201Z,0.80
2017-12-03T09:29:56.300Z,0.90
2017-12-03T09:31:59.010Z,0.90
2017-12-03T09:34:01.906Z,1.00
2017-12-03T09:36:04.629Z,0.90
2017-12-03T09:38:07.415Z,1.00
2017-12-03T09:40:10.099Z,1.00
2017-12-03T09:42:12.830Z,1.10
2017-12-03T09:44:15.960Z,1.10
2017-12-03T09:46:18.833Z,1.00
2017-12-03T09:48:22.346Z,1.10
2017-12-03T09:50:25.164Z,1.10
2017-12-03T09:52:27.886Z,1.00
2017-12-03T09:54:30.622Z,1.00
2017-12-03T09:56:33.303Z,1.10
2017-12-03T09:58:36.005Z,1.00
2017-12-03T10:00:38.735Z,1.00
2017-12-03T10:02:41.440Z,1.00
2017-12-03T10:04:44.958Z,1.00
2017-12-03T10:06:47.715Z,1.00
2017-12-03T10:08:51.178Z,1.10
2017-12-03T10:10:54.016Z,1.00
2017-12-03T10:12:56.742Z,1.10
2017-12-03T10:14:59.514Z,1.00
2017-12-03T10:17:02.232Z,1.10
2017-12-03T10:19:05.721Z,1.10
2017-12-03T10:21:09.187Z,1.10
2017-12-03T10:23:11.918Z,1.10
2017-12-03T10:25:14.702Z,1.20
2017-12-03T10:27:17.487Z,1.30
2017-12-03T10:29:20.196Z,1.30
2017-12-03T10:31:22.897Z,1.30
2017-12-03T10:33:26.374Z,1.30
2017-12-03T10:35:29.085Z,1.30
2017-12-03T10:37:31.828Z,1.30
2017-12-03T10:39:34.496Z,1.30
2017-12-03T10:41:37.159Z,1.30
2017-12-03T10:43:39.934Z,1.40
2017-12-03T10:45:42.618Z,1.40
2017-12-03T10:47:45.372Z,1.50
2017-12-03T10:49:48.104Z,1.50
2017-12-03T10:51:51.638Z,1.50
2017-12-03T10:53:54.317Z,1.40
2017-12-03T10:55:57.095Z,1.40
2017-12-03T10:57:59.775Z,1.40
2017-12-03T11:00:02.433Z,1.40
2017-12-03T11:02:05.148Z,1.40
2017-12-03T11:04:07.803Z,1.40
2017-12-03T11:06:10.679Z,1.40
2017-12-03T11:08:13.463Z,1.40
2017-12-03T11:10:16.247Z,1.50
2017-12-03T11:12:18.925Z,1.40
2017-12-03T11:14:21.687Z,1.40
2017-12-03T11:16:25.408Z,1.40
2017-12-03T11:18:28.168Z,1.40
2017-12-03T11:20:31.063Z,1.40
2017-12-03T11:22:33.830Z,1.40
2017-12-03T11:24:36.612Z,1.40
2017-12-03T11:26:39.303Z,1.40
2017-12-03T11:28:41.977Z,1.40
2017-12-03T11:30:44.651Z,1.40
2017-12-03T11:32:47.397Z,1.40
2017-12-03T11:34:50.071Z,1.40
2017-12-03T11:36:53.554Z,1.40
2017-12-03T11:38:57.102Z,1.30
2017-12-03T11:40:59.751Z,1.30
2017-12-03T11:43:02.426Z,1.40
2017-12-03T11:45:05.180Z,1.40
2017-12-03T11:47:08.589Z,1.30
2017-12-03T11:49:11.233Z,1.30
2017-12-03T11:51:14.669Z,1.40
2017-12-03T11:53:17.330Z,1.40
2017-12-03T11:55:19.995Z,1.40
2017-12-03T11:57:23.434Z,1.50
2017-12-03T11:59:26.193Z,1.50
2017-12-03T12:01:28.871Z,1.60
2017-12-03T12:03:31.632Z,1.50
2017-12-03T12:05:34.306Z,1.50
2017-12-03T12:07:37.753Z,1.50
2017-12-03T12:09:40.419Z,1.50
2017-12-03T12:11:43.061Z,1.60
2017-12-03T12:13:45.866Z,1.60
2017-12-03T12:15:48.523Z,1.60
2017-12-03T12:17:51.623Z,1.60
2017-12-03T12:19:54.316Z,1.70
2017-12-03T12:21:57.057Z,1.70
2017-12-03T12:23:59.828Z,1.80
2017-12-03T12:26:02.707Z,1.70
2017-12-03T12:28:05.405Z,1.70
2017-12-03T12:30:08.054Z,1.70
2017-12-03T12:32:11.508Z,1.70
2017-12-03T12:34:14.353Z,1.70
2017-12-03T12:36:17.013Z,1.70
2017-12-03T12:38:19.644Z,1.70
2017-12-03T12:40:22.377Z,1.70
2017-12-03T12:42:25.090Z,1.80
2017-12-03T12:44:27.877Z,1.70
2017-12-03T12:46:30.612Z,1.80
2017-12-03T12:48:33.335Z,1.80
2017-12-03T12:50:36.048Z,1.80
2017-12-03T12:52:39.487Z,1.90
2017-12-03T12:54:42.202Z,1.90
2017-12-03T12:56:45.671Z,2.00
2017-12-03T12:58:48.567Z,2.00
2017-12-03T13:00:51.590Z,2.10
2017-12-03T13:02:54.250Z,2.10
2017-12-03T13:04:57.658Z,2.10
2017-12-03T13:07:00.346Z,2.00
2017-12-03T13:09:03.043Z,2.00
2017-12-03T13:11:05.736Z,2.00
2017-12-03T13:13:08.424Z,2.10
2017-12-03T13:15:11.080Z,2.10
2017-12-03T13:17:13.830Z,2.00
2017-12-03T13:19:16.501Z,2.00
2017-12-03T13:21:19.186Z,2.00
2017-12-03T13:23:21.829Z,2.00
2017-12-03T13:25:24.677Z,2.10
2017-12-03T13:27:27.343Z,2.00
2017-12-03T13:29:30.017Z,2.10
2017-12-03T13:31:32.739Z,2.10
2017-12-03T13:33:36.167Z,2.00
2017-12-03T13:35:38.816Z,2.00
2017-12-03T13:37:42.343Z,2.00
2017-12-03T13:39:44.993Z,2.00
2017-12-03T13:41:47.636Z,2.10
2017-12-03T13:43:50.304Z,2.00
2017-12-03T13:45:52.970Z,2.00
2017-12-03T13:47:55.620Z,2.10
2017-12-03T13:49:58.331Z,2.10
2017-12-03T13:52:01.072Z,2.00
2017-12-03T13:54:03.871Z,2.10
2017-12-03T13:56:06.568Z,2.10
2017-12-03T13:58:09.266Z,2.10
2017-12-03T14:00:12.701Z,2.10
2017-12-03T14:02:15.374Z,2.10
2017-12-03T14:04:18.041Z,2.10
2017-12-03T14:06:20.684Z,2.00
2017-12-03T14:08:24.143Z,2.10
2017-12-03T14:10:26.859Z,2.00
2017-12-03T14:12:30.334Z,2.00
2017-12-03T14:14:33.081Z,2.00
2017-12-03T14:16:35.737Z,2.10
2017-12-03T14:18:38.464Z,2.00
2017-12-03T14:20:41.109Z,2.10
2017-12-03T14:22:43.767Z,2.10
2017-12-03T14:24:46.457Z,2.00
2017-12-03T14:26:49.120Z,2.10
2017-12-03T14:28:51.811Z,2.10
2017-12-03T14:30:55.408Z,2.10
2017-12-03T14:32:58.068Z,2.10
2017-12-03T14:35:00.736Z,2.10
2017-12-03T14:37:05.309Z,2.10
2017-12-03T14:39:08.815Z,2.10
2017-12-03T14:41:11.652Z,2.10
2017-12-03T14:43:14.317Z,2.10
2017-12-03T14:45:16.970Z,2.10
2017-12-03T14:47:20.425Z,2.10
2017-12-03T14:49:23.072Z,2.10
2017-12-03T14:51:25.914Z,2.10
2017-12-03T14:53:29.416Z,2.10
2017-12-03T14:55:32.066Z,2.10
2017-12-03T14:57:34.726Z,2.10
2017-12-03T14:59:37.413Z,2.10
2017-12-03T15:01:40.070Z,2.10
2017-12-03T15:03:42.755Z,2.10
2017-12-03T15:05:45.448Z,2.10
2017-12-03T15:07:48.109Z,2.10
2017-12-03T15:09:50.800Z,2.10
2017-12-03T15:11:55.082Z,2.10
2017-12-03T15:13:57.766Z,2.10
2017-12-03T15:16:00.469Z,2.10
2017-12-03T15:18:03.180Z,2.10
2017-12-03T15:20:05.877Z,2.10
2017-12-03T15:22:08.587Z,2.10
2017-12-03T15:24:11.312Z,2.10
2017-12-03T15:26:14.030Z,2.10
2017-12-03T15:28:16.746Z,2.10
2017-12-03T15:30:20.246Z,2.10
2017-12-03T15:32:23.715Z,2.10
2017-12-03T15:34:26.520Z,2.10
2017-12-03T15:36:29.259Z,2.10
2017-12-03T15:38:32.149Z,2.10
2017-12-03T15:40:34.839Z,2.10
2017-12-03T15:42:38.385Z,2.10
2017-12-03T15:44:41.098Z,2.10
2017-12-03T15:46:43.805Z,2.10
2017-12-03T15:48:47.832Z,2.10
2017-12-03T15:50:50.736Z,2.10
2017-12-03T15:52:53.700Z,2.20
2017-12-03T15:54:56.679Z,2.10
2017-12-03T15:56:59.402Z,2.20
2017-12-03T15:59:03.241Z,2.20
2017-12-03T16:01:06.010Z,2.20
2017-12-03T16:03:09.483Z,2.20
2017-12-03T16:05:12.196Z,2.20
2017-12-03T16:07:14.939Z,2.20
2017-12-03T16:09:17.628Z,2.20
2017-12-03T16:11:21.292Z,2.20
2017-12-03T16:13:24.023Z,2.20
2017-12-03T16:15:26.822Z,2.20
2017-12-03T16:17:29.485Z,2.20
2017-12-03T16:19:32.183Z,2.20
2017-12-03T16:21:35.913Z,2.20
2017-12-03T16:23:38.652Z,2.20
2017-12-03T16:25:41.352Z,2.20
2017-12-03T16:27:44.074Z,2.20
2017-12-03T16:29:48.093Z,2.20
2017-12-03T16:31:51.512Z,2.20
2017-12-03T16:33:54.207Z,2.20
2017-12-03T16:35:57.051Z,2.20
2017-12-03T16:37:59.724Z,2.20
2017-12-03T16:40:02.535Z,2.30
2017-12-03T16:42:05.239Z,2.30
2017-12-03T16:44:07.904Z,2.30
2017-12-03T16:46:10.576Z,2.30
2017-12-03T16:48:13.293Z,2.30
2017-12-03T16:50:16.921Z,2.30
2017-12-03T16:52:19.591Z,2.30
2017-12-03T16:54:22.269Z,2.30
2017-12-03T16:56:24.906Z,2.30
2017-12-03T16:58:27.633Z,2.30
2017-12-03T17:00:30.352Z,2.30
2017-12-03T17:02:33.070Z,2.30
2017-12-03T17:04:35.882Z,2.30
2017-12-03T17:06:38.597Z,2.30
2017-12-03T17:08:41.265Z,2.30
2017-12-03T17:10:43.991Z,2.30
2017-12-03T17:12:46.691Z,2.30
2017-12-03T17:14:49.365Z,2.30
2017-12-03T17:16:52.026Z,2.30
2017-12-03T17:18:54.851Z,2.40
2017-12-03T17:20:57.551Z,2.40
2017-12-03T17:23:01.076Z,2.40
2017-12-03T17:25:04.057Z,2.40
2017-12-03T17:27:06.755Z,2.40
2017-12-03T17:29:09.421Z,2.40
2017-12-03T17:31:12.166Z,2.40
2017-12-03T17:33:15.681Z,2.40
2017-12-03T17:35:18.371Z,2.40
2017-12-03T17:37:21.041Z,2.40
2017-12-03T17:39:23.715Z,2.40
2017-12-03T17:41:26.526Z,2.40
2017-12-03T17:43:29.220Z,2.40
2017-12-03T17:45:32.163Z,2.40
2017-12-03T17:47:34.800Z,2.40
2017-12-03T17:49:37.519Z,2.40
2017-12-03T17:51:40.161Z,2.40
2017-12-03T17:53:42.824Z,2.40
2017-12-03T17:55:46.284Z,2.40
2017-12-03T17:57:49.039Z,2.40
2017-12-03T17:59:51.905Z,2.40
2017-12-03T18:01:54.671Z,2.40
2017-12-03T18:03:57.330Z,2.40
2017-12-03T18:06:00.854Z,2.40
2017-12-03T18:08:03.595Z,2.40
2017-12-03T18:10:06.271Z,2.40
2017-12-03T18:12:09.755Z,2.50
2017-12-03T18:14:12.424Z,2.40
2017-12-03T18:16:15.079Z,2.40
2017-12-03T18:18:17.761Z,2.40
2017-12-03T18:20:20.553Z,2.50
2017-12-03T18:22:23.229Z,2.50
2017-12-03T18:24:25.945Z,2.50
2017-12-03T18:26:29.458Z,2.50
2017-12-03T18:28:32.108Z,2.50
2017-12-03T18:30:35.563Z,2.50
2017-12-03T18:32:39.148Z,2.50
2017-12-03T18:34:41.841Z,2.50
2017-12-03T18:36:44.571Z,2.50
2017-12-03T18:38:47.278Z,2.50
2017-12-03T18:40:49.966Z,2.50
2017-12-03T18:42:54.576Z,2.50
2017-12-03T18:44:57.937Z,2.50
2017-12-03T18:47:00.704Z,2.50
2017-12-03T18:49:04.553Z,2.50
2017-12-03T18:51:08.876Z,2.50
2017-12-03T18:53:11.623Z,2.50
2017-12-03T18:55:14.483Z,2.50
2017-12-03T18:57:20.762Z,2.50
2017-12-03T18:59:23.618Z,2.60
2017-12-03T19:01:27.264Z,2.60
2017-12-03T19:03:29.947Z,2.60
2017-12-03T19:05:32.702Z,2.60
2017-12-03T19:07:35.437Z,2.60
2017-12-03T19:09:38.896Z,2.60
2017-12-03T19:11:41.564Z,2.60
2017-12-03T19:13:44.319Z,2.60
2017-12-03T19:15:47.009Z,2.60
2017-12-03T19:17:49.705Z,2.70
2017-12-03T19:19:52.484Z,2.70
2017-12-03T19:21:55.333Z,2.60
2017-12-03T19:23:58.113Z,2.70
2017-12-03T19:26:01.050Z,2.70
2017-12-03T19:28:03.723Z,2.70
2017-12-03T19:30:06.424Z,2.70
2017-12-03T19:32:10.089Z,2.70
2017-12-03T19:34:12.768Z,2.70
2017-12-03T19:36:16.845Z,2.70
2017-12-03T19:38:19.504Z,2.70
2017-12-03T19:40:22.177Z,2.80
2017-12-03T19:42:27.320Z,2.80
2017-12-03T19:44:30.061Z,2.70
2017-12-03T19:46:33.508Z,2.80
2017-12-03T19:48:36.250Z,2.80
2017-12-03T19:50:39.716Z,2.80
2017-12-03T19:52:43.925Z,2.80
2017-12-03T19:54:46.648Z,2.80
2017-12-03T19:56:49.348Z,2.80
2017-12-03T19:58:52.106Z,2.80
2017-12-03T20:00:54.851Z,2.80
2017-12-03T20:02:58.519Z,2.80
2017-12-03T20:05:01.260Z,2.80
2017-12-03T20:07:03.992Z,2.90
2017-12-03T20:09:06.921Z,2.90
2017-12-03T20:11:12.520Z,2.90
2017-12-03T20:13:15.211Z,2.80
2017-12-03T20:15:18.670Z,2.90
2017-12-03T20:17:21.384Z,2.90
2017-12-03T20:19:24.908Z,2.90
2017-12-03T20:21:27.802Z,2.90
2017-12-03T20:23:30.647Z,2.90
2017-12-03T20:25:34.091Z,2.90
2017-12-03T20:27:36.791Z,2.90
2017-12-03T20:29:39.520Z,2.90
2017-12-03T20:31:42.406Z,2.90
2017-12-03T20:33:46.241Z,2.90
2017-12-03T20:35:48.932Z,2.90
2017-12-03T20:37:51.684Z,2.90
2017-12-03T20:39:54.579Z,2.90
2017-12-03T20:41:57.772Z,2.90
2017-12-03T20:44:00.451Z,2.90
2017-12-03T20:46:03.179Z,2.90
2017-12-03T20:48:05.900Z,2.90
2017-12-03T20:50:08.663Z,3.00
2017-12-03T20:52:11.411Z,3.00
2017-12-03T20:54:14.190Z,3.00
2017-12-03T20:56:16.882Z,2.90
2017-12-03T20:58:19.635Z,3.00
2017-12-03T21:00:22.535Z,3.00
2017-12-03T21:02:25.219Z,3.00
2017-12-03T21:04:28.006Z,3.00
2017-12-03T21:06:30.705Z,3.00
2017-12-03T21:08:33.371Z,3.00
2017-12-03T21:10:36.034Z,3.00
2017-12-03T21:12:38.955Z,3.00
2017-12-03T21:14:42.489Z,3.00
2017-12-03T21:16:45.273Z,3.00
2017-12-03T21:18:48.046Z,3.00
2017-12-03T21:20:50.853Z,3.00
2017-12-03T21:22:53.579Z,3.00
2017-12-03T21:24:57.041Z,3.00
2017-12-03T21:26:59.684Z,3.00
2017-12-03T21:29:02.377Z,3.00
2017-12-03T21:31:05.048Z,3.00
2017-12-03T21:33:07.715Z,3.00
2017-12-03T21:35:10.403Z,3.00
2017-12-03T21:37:13.099Z,3.00
2017-12-03T21:39:15.779Z,3.00
2017-12-03T21:41:18.489Z,3.00
2017-12-03T21:43:21.950Z,3.00
2017-12-03T21:45:24.676Z,3.00
2017-12-03T21:47:27.346Z,3.10
2017-12-03T21:49:30.021Z,3.10
2017-12-03T21:51:32.690Z,3.00
2017-12-03T21:53:35.480Z,3.00
2017-12-03T21:55:38.147Z,3.10
2017-12-03T21:57:40.827Z,3.10
2017-12-03T21:59:43.531Z,3.10
2017-12-03T22:01:46.219Z,3.10
2017-12-03T22:03:48.966Z,3.10
2017-12-03T22:05:51.620Z,3.10
2017-12-03T22:07:55.057Z,3.10
2017-12-03T22:09:57.715Z,3.10
2017-12-03T22:12:00.366Z,3.10
2017-12-03T22:14:03.816Z,3.10
2017-12-03T22:16:06.559Z,3.10
2017-12-03T22:18:09.225Z,3.10
2017-12-03T22:20:11.868Z,3.10
2017-12-03T22:22:14.528Z,3.10
2017-12-03T22:24:17.192Z,3.10
2017-12-03T22:26:19.943Z,3.10
2017-12-03T22:28:22.597Z,3.20
2017-12-03T22:30:26.045Z,3.10
2017-12-03T22:32:28.781Z,3.10
2017-12-03T22:34:31.502Z,3.20
2017-12-03T22:36:34.190Z,3.20
2017-12-03T22:38:36.847Z,3.20
2017-12-03T22:40:39.528Z,3.20
2017-12-03T22:42:42.206Z,3.20
2017-12-03T22:44:44.863Z,3.20
2017-12-03T22:46:47.547Z,3.20
2017-12-03T22:48:50.195Z,3.20
2017-12-03T22:50:52.973Z,3.20
2017-12-03T22:52:55.644Z,3.20
2017-12-03T22:54:58.319Z,3.20
2017-12-03T22:57:01.005Z,3.20
2017-12-03T22:59:03.901Z,3.20
2017-12-03T23:01:06.560Z,3.20
2017-12-03T23:03:09.226Z,3.30
2017-12-03T23:05:11.912Z,3.30
2017-12-03T23:07:14.688Z,3.30
2017-12-03T23:09:17.359Z,3.30
2017-12-03T23:11:20.053Z,3.30
2017-12-03T23:13:22.711Z,3.30
2017-12-03T23:15:25.371Z,3.30
2017-12-03T23:17:28.812Z,3.30
2017-12-03T23:19:31.457Z,3.30
2017-12-03T23:21:34.124Z,3.30
2017-12-03T23:23:36.854Z,3.30
2017-12-03T23:25:39.581Z,3.30
2017-12-03T23:27:42.384Z,3.30
2017-12-03T23:29:45.067Z,3.30
2017-12-03T23:31:47.740Z,3.30
2017-12-03T23:33:50.414Z,3.40
2017-12-03T23:35:53.111Z,3.40
2017-12-03T23:37:55.775Z,3.40
2017-12-03T23:39:58.466Z,3.40
2017-12-03T23:42:01.164Z,3.40
2017-12-03T23:44:03.869Z,3.40
2017-12-03T23:46:07.378Z,3.40
2017-12-03T23:48:10.070Z,3.40
2017-12-03T23:50:12.975Z,3.40
2017-12-03T23:52:15.694Z,3.40
2017-12-03T23:54:19.146Z,3.40
2017-12-03T23:56:21.811Z,3.40
2017-12-03T23:58:24.542Z,3.40
